Time;durP1;ratioP1;P1;durP2;ratioP2;P2;SDS_P1;SDS_P2;PMS_P1;PMS_P2;Temp;Humidity;BMP_temperature;BMP_pressure;BME280_temperature;BME280_humidity;BME280_pressure;Samples;Min_cycle;Max_cycle;Signal;HPM_P1;HPM_P2
2021/05/07 00:01:01;;;;;;;4.10;3.70;;;8.10;94.40;;;;;;2087901;28;20013;-70
2021/05/07 00:02:02;;;;;;;4.32;3.50;;;8.10;94.20;;;;;;2087991;28;20031;-70
2021/05/07 00:03:03;;;;;;;5.47;3.85;;;8.10;94.20;;;;;;2088646;28;20024;-70
2021/05/07 00:04:04;;;;;;;4.82;3.85;;;8.10;94.30;;;;;;2088514;28;20033;-71
2021/05/07 00:05:06;;;;;;;4.70;3.67;;;8.10;94.30;;;;;;2088619;28;20113;-71
2021/05/07 00:06:07;;;;;;;4.07;3.40;;;8.10;94.30;;;;;;2088666;28;20392;-69
2021/05/07 00:07:08;;;;;;;6.05;3.70;;;8.10;94.30;;;;;;2087584;28;20025;-73
2021/05/07 00:08:09;;;;;;;4.22;3.67;;;8.10;94.30;;;;;;2079452;28;20026;-69
2021/05/07 00:09:09;;;;;;;3.92;3.50;;;8.10;94.30;;;;;;2088053;28;20033;-71
2021/05/07 00:10:14;;;;;;;4.68;3.58;;;8.10;94.40;;;;;;2088512;28;20082;-70
2021/05/07 00:11:18;;;;;;;4.63;3.78;;;8.10;94.50;;;;;;2087905;28;20789;-70
2021/05/07 00:12:18;;;;;;;5.63;4.07;;;8.10;94.30;;;;;;2088100;28;20055;-70
2021/05/07 00:13:19;;;;;;;4.85;3.90;;;8.10;94.40;;;;;;2088471;28;20013;-71
2021/05/07 00:14:20;;;;;;;4.28;3.88;;;8.10;94.30;;;;;;2088819;28;20025;-69
2021/05/07 00:15:21;;;;;;;4.70;3.75;;;8.10;94.30;;;;;;2079891;28;20022;-69
2021/05/07 00:16:21;;;;;;;3.88;3.47;;;8.10;94.10;;;;;;2079855;28;20105;-69
2021/05/07 00:17:22;;;;;;;4.45;3.65;;;8.10;94.00;;;;;;2087746;28;20033;-70
2021/05/07 00:18:23;;;;;;;3.50;3.20;;;8.10;93.90;;;;;;2088597;28;20479;-68
2021/05/07 00:19:24;;;;;;;5.30;3.47;;;8.10;93.90;;;;;;2088790;28;20032;-70
2021/05/07 00:20:24;;;;;;;4.53;3.30;;;8.10;93.90;;;;;;2088319;28;20029;-70
2021/05/07 00:21:25;;;;;;;4.75;3.55;;;8.10;94.00;;;;;;2088030;28;20036;-70
2021/05/07 00:22:25;;;;;;;4.15;3.75;;;8.10;94.20;;;;;;2088703;28;20502;-69
2021/05/07 00:23:26;;;;;;;4.78;3.80;;;8.10;94.30;;;;;;2088787;28;20035;-69
2021/05/07 00:24:27;;;;;;;4.90;3.67;;;8.10;94.60;;;;;;2089297;28;20049;-70
2021/05/07 00:25:28;;;;;;;4.95;3.55;;;8.10;94.60;;;;;;2089567;28;20017;-69
2021/05/07 00:26:28;;;;;;;5.03;3.70;;;8.10;94.50;;;;;;2089212;28;20091;-71
2021/05/07 00:27:29;;;;;;;3.97;3.58;;;8.10;94.60;;;;;;2088805;28;20103;-68
2021/05/07 00:28:30;;;;;;;4.03;3.50;;;8.10;94.60;;;;;;2087956;28;20013;-69
2021/05/07 00:29:31;;;;;;;5.18;3.85;;;8.10;94.60;;;;;;2089226;28;20033;-71
2021/05/07 00:30:33;;;;;;;5.05;4.03;;;8.10;94.50;;;;;;2088977;28;20074;-69
2021/05/07 00:31:34;;;;;;;4.53;3.92;;;8.10;94.40;;;;;;2094941;28;20028;-69
2021/05/07 00:32:34;;;;;;;4.40;3.83;;;8.10;94.60;;;;;;2090509;28;20391;-69
2021/05/07 00:33:35;;;;;;;4.93;4.00;;;8.10;94.90;;;;;;2088352;28;20033;-69
2021/05/07 00:34:36;;;;;;;4.05;3.65;;;8.10;95.00;;;;;;2088506;28;20027;-70
2021/05/07 00:35:37;;;;;;;4.68;3.80;;;8.10;95.00;;;;;;2079629;28;20159;-70
2021/05/07 00:36:37;;;;;;;3.97;3.50;;;8.10;94.80;;;;;;2079508;28;20026;-71
2021/05/07 00:37:38;;;;;;;3.90;3.50;;;8.10;94.80;;;;;;2079251;28;20017;-71
2021/05/07 00:38:39;;;;;;;5.03;3.70;;;8.10;94.80;;;;;;2079409;28;20540;-72
2021/05/07 00:39:39;;;;;;;5.20;3.85;;;8.10;94.70;;;;;;2087878;28;20830;-72
2021/05/07 00:40:41;;;;;;;4.20;3.70;;;8.10;94.80;;;;;;2088458;28;20432;-72
2021/05/07 00:41:41;;;;;;;6.03;4.20;;;8.10;94.80;;;;;;2089209;28;20097;-72
2021/05/07 00:42:42;;;;;;;4.70;3.78;;;8.10;94.80;;;;;;2089249;28;20385;-72
2021/05/07 00:43:43;;;;;;;5.20;4.18;;;8.10;94.80;;;;;;2089261;28;20024;-72
2021/05/07 00:44:44;;;;;;;4.40;3.90;;;8.10;94.90;;;;;;2089257;28;20019;-72
2021/05/07 00:45:45;;;;;;;4.55;3.95;;;8.10;95.00;;;;;;2089492;28;20071;-71
2021/05/07 00:46:47;;;;;;;6.63;4.03;;;8.10;95.20;;;;;;2089252;28;20647;-72
2021/05/07 00:47:54;;;;;;;4.97;4.10;;;8.10;95.20;;;;;;2089093;28;20029;-71
2021/05/07 00:48:54;;;;;;;4.60;3.85;;;8.10;95.20;;;;;;2082282;28;20043;-71
2021/05/07 00:49:55;;;;;;;4.78;3.65;;;8.10;95.20;;;;;;2089183;28;20112;-72
2021/05/07 00:50:56;;;;;;;5.22;4.00;;;8.10;95.20;;;;;;2089319;28;20530;-72
2021/05/07 00:51:57;;;;;;;5.03;3.92;;;8.10;95.20;;;;;;2089182;28;20641;-71
2021/05/07 00:52:59;;;;;;;6.20;3.90;;;8.10;95.10;;;;;;2080917;28;20116;-72
2021/05/07 00:53:59;;;;;;;4.65;3.97;;;8.10;95.00;;;;;;2089230;28;20101;-71
2021/05/07 00:55:02;;;;;;;4.32;3.65;;;8.10;95.00;;;;;;2089849;28;20036;-72
2021/05/07 00:56:04;;;;;;;4.63;4.00;;;8.10;94.90;;;;;;2089713;28;20053;-71
2021/05/07 00:57:05;;;;;;;5.43;3.80;;;8.10;94.90;;;;;;2089722;28;20687;-71
2021/05/07 00:58:06;;;;;;;4.63;3.78;;;8.10;94.90;;;;;;2088057;28;20629;-71
2021/05/07 00:59:08;;;;;;;3.90;3.50;;;8.10;94.90;;;;;;2089752;28;20036;-71
2021/05/07 01:00:10;;;;;;;3.97;3.40;;;8.10;94.70;;;;;;2089812;28;20059;-71
2021/05/07 01:01:12;;;;;;;5.30;3.72;;;8.10;94.50;;;;;;2089718;28;20499;-71
2021/05/07 01:02:12;;;;;;;4.97;3.50;;;8.10;94.40;;;;;;2080811;28;20378;-71
2021/05/07 01:03:13;;;;;;;4.30;3.58;;;8.10;94.50;;;;;;2080840;28;20036;-71
2021/05/07 01:04:14;;;;;;;3.88;3.30;;;8.00;94.20;;;;;;2089084;28;20047;-71
2021/05/07 01:05:15;;;;;;;4.93;3.80;;;8.00;94.10;;;;;;2088995;28;20033;-71
2021/05/07 01:06:16;;;;;;;4.55;3.85;;;8.00;93.90;;;;;;2080862;28;20112;-71
2021/05/07 01:07:17;;;;;;;4.47;3.67;;;8.00;94.10;;;;;;2084131;28;20111;-71
2021/05/07 01:08:18;;;;;;;4.45;3.88;;;8.00;94.30;;;;;;2085207;28;20030;-71
2021/05/07 01:09:23;;;;;;;4.90;4.00;;;8.00;94.20;;;;;;2081539;28;20063;-71
2021/05/07 01:10:25;;;;;;;5.43;3.97;;;8.10;94.20;;;;;;2089167;28;20584;-71
2021/05/07 01:11:26;;;;;;;4.88;3.90;;;8.00;94.10;;;;;;2088988;28;20037;-71
2021/05/07 01:12:28;;;;;;;4.88;4.00;;;8.00;94.00;;;;;;2085888;28;20583;-71
2021/05/07 01:13:29;;;;;;;4.90;4.00;;;8.00;94.00;;;;;;2089209;28;20017;-71
2021/05/07 01:14:36;;;;;;;5.20;3.95;;;8.00;94.00;;;;;;2091023;28;20028;-71
2021/05/07 01:15:37;;;;;;;4.90;3.85;;;8.00;94.30;;;;;;2089031;28;20365;-71
2021/05/07 01:16:38;;;;;;;5.30;4.22;;;8.00;94.40;;;;;;2088937;28;20121;-71
2021/05/07 01:17:42;;;;;;;4.85;4.25;;;8.10;94.40;;;;;;2089385;28;20039;-71
2021/05/07 01:18:43;;;;;;;4.88;4.22;;;8.10;94.30;;;;;;2088918;28;20112;-71
2021/05/07 01:19:43;;;;;;;4.47;3.90;;;8.10;94.60;;;;;;2080848;28;20033;-70
2021/05/07 01:20:44;;;;;;;5.78;4.03;;;8.10;94.60;;;;;;2088984;28;20021;-71
2021/05/07 01:21:45;;;;;;;5.10;4.35;;;8.10;94.30;;;;;;2089546;28;20039;-71
2021/05/07 01:22:50;;;;;;;4.78;3.95;;;8.10;94.40;;;;;;2088975;28;20032;-71
2021/05/07 01:23:50;;;;;;;4.68;3.70;;;8.10;94.50;;;;;;2088959;28;20083;-71
2021/05/07 01:24:51;;;;;;;5.10;4.10;;;8.00;94.40;;;;;;2089829;28;20528;-71
2021/05/07 01:25:52;;;;;;;4.13;3.72;;;8.10;94.50;;;;;;2096938;28;20042;-71
2021/05/07 01:26:53;;;;;;;4.55;3.85;;;8.10;94.60;;;;;;2089004;28;20044;-71
2021/05/07 01:27:59;;;;;;;5.22;4.00;;;8.10;94.70;;;;;;2087322;28;20052;-70
2021/05/07 01:29:08;;;;;;;5.15;4.35;;;8.10;94.60;;;;;;2089055;28;20103;-68
2021/05/07 01:30:14;;;;;;;4.47;3.92;;;8.10;94.70;;;;;;2089444;28;20021;-69
2021/05/07 01:31:14;;;;;;;5.55;4.28;;;8.10;94.70;;;;;;2089635;28;20020;-70
2021/05/07 01:32:15;;;;;;;4.75;3.75;;;8.10;94.70;;;;;;2089564;28;20836;-69
2021/05/07 01:33:17;;;;;;;6.25;4.43;;;8.10;94.60;;;;;;2088657;28;20559;-69
2021/05/07 01:34:22;;;;;;;4.85;4.32;;;8.10;94.60;;;;;;2081231;28;20111;-73
2021/05/07 01:35:27;;;;;;;5.50;4.20;;;8.10;94.50;;;;;;2085137;28;20017;-70
2021/05/07 01:36:28;;;;;;;4.82;3.92;;;8.10;94.30;;;;;;2084174;28;20033;-69
2021/05/07 01:37:29;;;;;;;5.25;4.13;;;8.10;94.10;;;;;;2088742;28;20053;-70
2021/05/07 01:38:30;;;;;;;4.43;3.97;;;8.10;94.00;;;;;;2089374;28;20028;-69
2021/05/07 01:39:31;;;;;;;6.25;4.43;;;8.10;94.10;;;;;;2088922;28;20885;-71
2021/05/07 01:40:34;;;;;;;4.85;4.22;;;8.10;94.30;;;;;;2088929;28;20025;-72
2021/05/07 01:41:35;;;;;;;5.80;4.43;;;8.10;94.50;;;;;;2089509;28;20013;-72
2021/05/07 01:42:35;;;;;;;5.70;4.40;;;8.00;94.40;;;;;;2089598;28;20029;-71
2021/05/07 01:43:36;;;;;;;5.18;4.60;;;8.10;94.50;;;;;;2088860;28;20013;-72
2021/05/07 01:44:38;;;;;;;4.93;4.43;;;8.10;94.40;;;;;;2080713;28;20032;-72
2021/05/07 01:45:42;;;;;;;5.93;4.80;;;8.00;94.40;;;;;;2088984;28;20104;-72
2021/05/07 01:46:43;;;;;;;5.75;4.68;;;8.00;94.50;;;;;;2089578;28;20087;-71
2021/05/07 01:47:45;;;;;;;5.72;4.82;;;8.00;94.50;;;;;;2089262;28;20025;-72
2021/05/07 01:48:45;;;;;;;6.35;5.05;;;8.00;94.50;;;;;;2089510;28;20036;-71
2021/05/07 01:49:46;;;;;;;6.10;4.88;;;8.00;94.60;;;;;;2089438;28;20039;-71
2021/05/07 01:50:48;;;;;;;6.63;5.00;;;8.00;94.60;;;;;;2088834;28;20070;-71
2021/05/07 01:51:48;;;;;;;6.35;5.32;;;8.10;94.60;;;;;;2088562;28;20104;-71
2021/05/07 01:52:50;;;;;;;5.82;5.05;;;8.00;94.70;;;;;;2089355;28;20044;-72
2021/05/07 01:53:50;;;;;;;5.78;4.78;;;8.00;94.80;;;;;;2081097;28;20029;-71
2021/05/07 01:54:51;;;;;;;5.45;4.95;;;8.00;94.70;;;;;;2089397;28;20202;-71
2021/05/07 01:55:52;;;;;;;5.88;5.07;;;8.00;94.50;;;;;;2088704;28;20063;-71
2021/05/07 01:57:01;;;;;;;6.18;4.93;;;8.00;94.50;;;;;;2088782;28;20132;-71
2021/05/07 01:58:09;;;;;;;5.60;4.80;;;8.00;94.80;;;;;;2087644;28;20032;-71
2021/05/07 01:59:13;;;;;;;6.68;5.40;;;8.00;94.60;;;;;;2088659;28;20066;-71
2021/05/07 02:00:16;;;;;;;6.53;5.38;;;8.00;94.90;;;;;;2080474;28;20037;-70
2021/05/07 02:01:20;;;;;;;6.60;5.28;;;8.00;94.90;;;;;;2081301;28;20026;-69
2021/05/07 02:02:23;;;;;;;6.53;5.57;;;8.00;95.00;;;;;;2080736;28;20088;-72
2021/05/07 02:03:24;;;;;;;7.65;5.55;;;8.00;95.10;;;;;;2076876;28;20766;-71
2021/05/07 02:04:29;;;;;;;8.35;6.25;;;8.00;95.10;;;;;;2076315;28;20026;-72
2021/05/07 02:05:33;;;;;;;8.13;6.05;;;8.00;95.10;;;;;;2080732;28;20048;-72
2021/05/07 02:06:36;;;;;;;6.97;5.93;;;8.00;95.30;;;;;;2089085;28;20025;-72
2021/05/07 02:07:36;;;;;;;7.93;6.15;;;7.90;95.00;;;;;;2089444;28;20029;-72
2021/05/07 02:08:37;;;;;;;6.63;5.30;;;7.90;95.00;;;;;;2089351;28;20389;-72
2021/05/07 02:09:37;;;;;;;8.48;6.07;;;7.90;95.10;;;;;;2089325;28;20078;-72
2021/05/07 02:10:39;;;;;;;7.05;5.55;;;7.90;95.20;;;;;;2089288;28;20392;-72
2021/05/07 02:11:39;;;;;;;8.60;5.88;;;7.90;95.30;;;;;;2089279;28;20031;-70
2021/05/07 02:12:42;;;;;;;8.07;6.32;;;7.90;95.40;;;;;;2080369;28;20077;-71
2021/05/07 02:13:43;;;;;;;7.30;5.80;;;7.90;95.40;;;;;;2080611;28;20021;-73
2021/05/07 02:14:44;;;;;;;7.63;6.18;;;7.90;95.50;;;;;;2089262;28;20408;-70
2021/05/07 02:15:45;;;;;;;7.03;6.03;;;7.90;95.70;;;;;;2089201;28;20029;-70
2021/05/07 02:16:48;;;;;;;6.90;5.45;;;7.90;95.80;;;;;;2089001;28;20063;-71
2021/05/07 02:17:50;;;;;;;7.03;6.10;;;7.90;95.70;;;;;;2088921;28;20017;-70
2021/05/07 02:18:51;;;;;;;7.55;5.75;;;7.90;95.50;;;;;;2088482;28;20032;-70
2021/05/07 02:19:53;;;;;;;6.15;5.30;;;7.90;95.50;;;;;;2080790;28;20021;-70
2021/05/07 02:20:54;;;;;;;6.22;5.50;;;7.90;95.60;;;;;;2096075;28;20055;-70
2021/05/07 02:21:55;;;;;;;6.82;5.68;;;7.90;95.60;;;;;;2088493;28;20046;-69
2021/05/07 02:22:57;;;;;;;7.13;5.60;;;7.90;95.60;;;;;;2089146;28;20071;-71
2021/05/07 02:23:59;;;;;;;6.18;5.45;;;7.90;95.60;;;;;;2088942;28;20024;-70
2021/05/07 02:25:00;;;;;;;6.80;5.95;;;7.90;95.40;;;;;;2088316;28;20025;-70
2021/05/07 02:26:01;;;;;;;6.93;5.82;;;7.80;95.30;;;;;;2088366;28;20092;-70
2021/05/07 02:27:14;;;;;;;7.05;5.93;;;7.90;95.30;;;;;;2088118;28;20025;-70
2021/05/07 02:28:15;;;;;;;6.88;5.50;;;7.80;95.20;;;;;;2087072;28;20017;-69
2021/05/07 02:29:17;;;;;;;7.07;5.38;;;7.80;95.20;;;;;;2089071;28;20032;-71
2021/05/07 02:30:21;;;;;;;7.13;5.45;;;7.80;95.20;;;;;;2088390;28;20070;-71
2021/05/07 02:31:22;;;;;;;7.97;5.90;;;7.80;95.00;;;;;;2085215;28;20028;-71
2021/05/07 02:32:23;;;;;;;8.38;5.60;;;7.80;95.00;;;;;;2083638;28;20080;-70
2021/05/07 02:33:24;;;;;;;6.85;5.28;;;7.80;95.00;;;;;;2088267;28;20476;-70
2021/05/07 02:34:25;;;;;;;6.63;5.78;;;7.80;95.00;;;;;;2088276;28;20480;-70
2021/05/07 02:35:27;;;;;;;7.15;6.00;;;7.80;95.00;;;;;;2085044;28;20550;-70
2021/05/07 02:36:28;;;;;;;5.70;5.07;;;7.80;95.10;;;;;;2083076;28;20094;-70
2021/05/07 02:37:29;;;;;;;7.45;6.13;;;7.80;95.20;;;;;;2085254;28;20013;-70
2021/05/07 02:38:30;;;;;;;6.80;5.82;;;7.80;95.10;;;;;;2088303;28;20096;-71
2021/05/07 02:39:31;;;;;;;7.82;5.50;;;7.90;95.20;;;;;;2086416;28;20114;-71
2021/05/07 02:40:31;;;;;;;7.25;5.82;;;7.90;95.20;;;;;;2088194;28;20017;-71
2021/05/07 02:41:35;;;;;;;6.72;5.55;;;7.80;95.20;;;;;;2080037;28;20128;-71
2021/05/07 02:42:36;;;;;;;6.95;5.53;;;7.90;95.40;;;;;;2078422;28;20033;-71
2021/05/07 02:43:37;;;;;;;7.53;5.78;;;7.90;95.60;;;;;;2088159;28;20024;-71
2021/05/07 02:44:39;;;;;;;6.85;5.50;;;7.80;95.60;;;;;;2086886;28;20017;-71
2021/05/07 02:45:40;;;;;;;6.38;5.50;;;7.90;95.60;;;;;;2088233;28;20024;-71
2021/05/07 02:46:41;;;;;;;7.75;5.68;;;7.90;95.70;;;;;;2088193;28;20017;-71
2021/05/07 02:47:42;;;;;;;7.07;5.50;;;7.90;95.70;;;;;;2087985;28;20029;-70
2021/05/07 02:48:45;;;;;;;7.30;5.70;;;7.90;95.70;;;;;;2088131;28;20037;-70
2021/05/07 02:49:47;;;;;;;6.10;5.50;;;7.90;95.70;;;;;;2088247;28;20029;-70
2021/05/07 02:50:48;;;;;;;6.65;5.38;;;7.90;95.70;;;;;;2088162;28;20032;-70
2021/05/07 02:51:49;;;;;;;6.03;5.43;;;7.80;95.70;;;;;;2087968;28;20035;-70
2021/05/07 02:52:50;;;;;;;7.13;5.60;;;7.80;95.80;;;;;;2096452;28;20448;-67
2021/05/07 02:53:50;;;;;;;7.05;5.80;;;7.90;96.00;;;;;;2088060;28;20036;-70
2021/05/07 02:54:53;;;;;;;7.50;5.63;;;7.90;96.00;;;;;;2080044;28;20391;-70
2021/05/07 02:55:55;;;;;;;7.00;5.93;;;7.80;96.10;;;;;;2079971;28;20037;-68
2021/05/07 02:56:55;;;;;;;6.97;5.63;;;7.90;96.20;;;;;;2088100;28;20043;-70
2021/05/07 02:57:56;;;;;;;7.15;6.00;;;7.90;96.30;;;;;;2087274;28;20078;-70
2021/05/07 02:58:57;;;;;;;6.82;6.13;;;7.90;96.40;;;;;;2088951;28;20025;-70
2021/05/07 02:59:58;;;;;;;7.15;5.80;;;7.80;96.30;;;;;;2088704;28;20025;-69
2021/05/07 03:00:58;;;;;;;7.30;5.70;;;7.80;96.30;;;;;;2088065;28;20566;-70
2021/05/07 03:01:59;;;;;;;8.23;5.93;;;7.80;96.30;;;;;;2088396;28;20052;-70
2021/05/07 03:03:00;;;;;;;6.38;5.70;;;7.80;96.30;;;;;;2088209;28;20409;-70
2021/05/07 03:04:03;;;;;;;8.43;5.97;;;7.80;96.20;;;;;;2087475;28;20025;-71
2021/05/07 03:05:05;;;;;;;9.88;6.07;;;7.80;96.20;;;;;;2088846;28;20082;-71
2021/05/07 03:06:06;;;;;;;7.32;5.78;;;7.80;96.10;;;;;;2088227;28;20326;-70
2021/05/07 03:07:07;;;;;;;7.22;5.80;;;7.80;96.60;;;;;;2088229;28;20063;-70
2021/05/07 03:08:07;;;;;;;6.63;5.50;;;7.80;96.10;;;;;;2088466;28;20449;-69
2021/05/07 03:09:08;;;;;;;7.43;5.60;;;7.70;95.80;;;;;;2088240;28;20903;-69
2021/05/07 03:10:09;;;;;;;5.60;5.10;;;7.70;95.80;;;;;;2082451;28;20072;-71
2021/05/07 03:11:10;;;;;;;7.85;5.20;;;7.70;95.70;;;;;;2088403;28;20033;-70
2021/05/07 03:12:11;;;;;;;6.72;5.30;;;7.70;95.70;;;;;;2085123;28;20033;-70
2021/05/07 03:13:12;;;;;;;7.45;5.68;;;7.70;95.60;;;;;;2088204;28;20016;-70
2021/05/07 03:14:13;;;;;;;7.10;5.70;;;7.70;95.70;;;;;;2088823;28;20603;-70
2021/05/07 03:15:15;;;;;;;6.40;5.47;;;7.60;95.70;;;;;;2088787;28;20036;-70
2021/05/07 03:16:16;;;;;;;6.47;5.35;;;7.70;95.70;;;;;;2088614;28;20264;-70
2021/05/07 03:17:16;;;;;;;7.05;5.78;;;7.70;95.70;;;;;;2088442;28;20029;-70
2021/05/07 03:18:21;;;;;;;6.32;5.43;;;7.70;95.80;;;;;;2088618;28;20024;-68
2021/05/07 03:19:22;;;;;;;6.65;5.68;;;7.70;96.00;;;;;;2088171;28;20021;-71
2021/05/07 03:20:23;;;;;;;8.05;5.97;;;7.70;96.10;;;;;;2079822;28;20057;-69
2021/05/07 03:21:23;;;;;;;7.68;6.07;;;7.70;96.00;;;;;;2087966;28;20044;-71
2021/05/07 03:22:24;;;;;;;7.38;5.97;;;7.70;96.10;;;;;;2088660;28;20477;-71
2021/05/07 03:23:25;;;;;;;6.82;6.13;;;7.70;96.20;;;;;;2088678;28;20032;-72
2021/05/07 03:24:26;;;;;;;7.63;6.82;;;7.70;96.30;;;;;;2088596;28;20029;-70
2021/05/07 03:25:26;;;;;;;7.70;6.70;;;7.60;96.40;;;;;;2079810;28;20710;-69
2021/05/07 03:26:27;;;;;;;9.13;6.75;;;7.60;96.70;;;;;;2079852;28;20531;-71
2021/05/07 03:27:27;;;;;;;8.23;5.70;;;7.60;96.60;;;;;;2079542;28;20045;-70
2021/05/07 03:28:28;;;;;;;5.80;5.18;;;7.50;96.00;;;;;;2071662;28;20128;-70
2021/05/07 03:29:29;;;;;;;7.82;5.82;;;7.50;95.50;;;;;;2079859;28;20091;-70
2021/05/07 03:30:32;;;;;;;7.43;5.97;;;7.40;95.80;;;;;;2087954;28;20092;-70
2021/05/07 03:31:36;;;;;;;7.10;5.88;;;7.40;95.80;;;;;;2079672;28;20017;-69
2021/05/07 03:32:36;;;;;;;8.23;6.00;;;7.40;96.00;;;;;;2080079;28;20021;-72
2021/05/07 03:33:38;;;;;;;8.23;6.07;;;7.40;96.40;;;;;;2087890;28;20088;-71
2021/05/07 03:34:39;;;;;;;7.88;6.78;;;7.40;96.20;;;;;;2088515;28;20029;-71
2021/05/07 03:35:39;;;;;;;7.57;6.45;;;7.40;96.20;;;;;;2090081;28;20021;-71
2021/05/07 03:36:40;;;;;;;8.70;6.75;;;7.40;96.60;;;;;;2089382;28;20056;-71
2021/05/07 03:37:40;;;;;;;8.18;6.60;;;7.40;96.70;;;;;;2089629;28;20064;-72
2021/05/07 03:38:42;;;;;;;9.00;7.18;;;7.40;96.60;;;;;;2089033;28;20051;-71
2021/05/07 03:39:43;;;;;;;11.52;8.07;;;7.30;96.70;;;;;;2089298;28;20021;-71
2021/05/07 03:40:44;;;;;;;9.68;7.53;;;7.30;96.70;;;;;;2089528;28;20021;-73
2021/05/07 03:41:45;;;;;;;10.75;8.38;;;7.30;97.00;;;;;;2089166;28;20753;-71
2021/05/07 03:42:46;;;;;;;10.95;8.68;;;7.30;97.00;;;;;;2088825;28;20045;-71
2021/05/07 03:43:46;;;;;;;12.27;9.43;;;7.30;97.10;;;;;;2079980;28;20103;-71
2021/05/07 03:44:47;;;;;;;13.02;9.90;;;7.30;97.30;;;;;;2071915;28;20041;-71
2021/05/07 03:45:48;;;;;;;15.15;10.73;;;7.30;97.20;;;;;;2088244;28;20040;-70
2021/05/07 03:46:49;;;;;;;15.10;10.30;;;7.30;97.00;;;;;;2087968;28;20033;-70
2021/05/07 03:47:49;;;;;;;13.90;10.88;;;7.30;97.40;;;;;;2087820;28;20033;-70
2021/05/07 03:48:50;;;;;;;15.57;11.25;;;7.20;97.00;;;;;;2096674;28;20447;-70
2021/05/07 03:49:51;;;;;;;13.38;11.10;;;7.20;96.70;;;;;;2087806;28;20033;-70
2021/05/07 03:50:52;;;;;;;13.52;10.85;;;7.20;96.80;;;;;;2087935;28;20033;-71
2021/05/07 03:51:53;;;;;;;14.48;11.57;;;7.20;97.10;;;;;;2088636;28;20037;-70
2021/05/07 03:52:53;;;;;;;13.40;10.75;;;7.20;97.20;;;;;;2079833;28;20025;-68
2021/05/07 03:53:54;;;;;;;14.38;11.07;;;7.20;97.20;;;;;;2079215;28;20029;-69
2021/05/07 03:54:55;;;;;;;14.18;11.07;;;7.20;97.10;;;;;;2087985;28;20044;-71
2021/05/07 03:55:57;;;;;;;12.93;10.63;;;7.20;97.00;;;;;;2079660;28;20110;-70
2021/05/07 03:56:57;;;;;;;13.48;10.63;;;7.20;97.10;;;;;;2079818;28;20045;-70
2021/05/07 03:58:00;;;;;;;13.25;10.52;;;7.30;97.40;;;;;;2086987;28;20033;-70
2021/05/07 03:59:00;;;;;;;13.68;10.32;;;7.30;97.40;;;;;;2087894;28;20504;-69
2021/05/07 04:00:03;;;;;;;13.90;10.18;;;7.30;97.50;;;;;;2087994;28;20052;-70
2021/05/07 04:01:13;;;;;;;14.82;10.35;;;7.40;97.50;;;;;;2081154;28;20492;-71
2021/05/07 04:02:14;;;;;;;14.50;10.32;;;7.40;97.50;;;;;;2084198;28;20060;-71
2021/05/07 04:03:15;;;;;;;14.15;11.00;;;7.40;97.50;;;;;;2092686;28;20021;-71
2021/05/07 04:04:15;;;;;;;12.57;10.27;;;7.40;97.30;;;;;;2079701;28;20497;-71
2021/05/07 04:05:16;;;;;;;13.15;9.63;;;7.30;97.10;;;;;;2079784;28;20029;-72
2021/05/07 04:06:19;;;;;;;12.15;9.75;;;7.40;97.20;;;;;;2079673;28;20430;-71
2021/05/07 04:07:20;;;;;;;11.70;9.85;;;7.40;97.20;;;;;;2087662;28;20028;-72
2021/05/07 04:08:25;;;;;;;12.15;10.20;;;7.40;97.10;;;;;;2087815;28;20096;-71
2021/05/07 04:09:34;;;;;;;13.30;10.40;;;7.40;96.90;;;;;;2085267;28;20033;-71
2021/05/07 04:10:41;;;;;;;12.90;9.77;;;7.40;96.60;;;;;;2090008;28;20021;-71
2021/05/07 04:13:48;;;;;;;13.45;9.80;;;7.40;96.80;;;;;;2088402;28;20025;-71
2021/05/07 04:14:49;;;;;;;13.35;10.45;;;7.40;96.80;;;;;;2088718;28;20025;-71
2021/05/07 04:15:50;;;;;;;13.73;10.18;;;7.40;96.70;;;;;;2098340;28;20036;-69
2021/05/07 04:16:50;;;;;;;14.02;10.18;;;7.40;96.80;;;;;;2081891;28;20578;-70
2021/05/07 04:17:51;;;;;;;12.20;9.63;;;7.40;96.70;;;;;;2089738;28;20475;-71
2021/05/07 04:18:55;;;;;;;15.63;10.90;;;7.40;96.70;;;;;;2090090;28;20021;-71
2021/05/07 04:19:56;;;;;;;13.35;10.35;;;7.40;96.50;;;;;;2090128;28;20021;-70
2021/05/07 04:20:57;;;;;;;15.43;10.43;;;7.40;96.60;;;;;;2090094;28;20021;-70
2021/05/07 04:21:57;;;;;;;12.25;9.60;;;7.40;96.60;;;;;;2090200;28;20032;-70
2021/05/07 04:22:58;;;;;;;14.40;10.10;;;7.40;96.50;;;;;;2089997;28;20097;-71
2021/05/07 04:23:59;;;;;;;13.82;10.40;;;7.50;96.60;;;;;;2090432;28;20021;-71
2021/05/07 04:24:59;;;;;;;13.45;10.27;;;7.50;96.70;;;;;;2090568;28;20453;-71
2021/05/07 04:26:00;;;;;;;13.57;9.70;;;7.50;96.50;;;;;;2090371;28;20100;-71
2021/05/07 04:27:01;;;;;;;12.38;9.63;;;7.40;96.50;;;;;;2089620;28;20570;-70
2021/05/07 04:28:02;;;;;;;13.65;10.40;;;7.40;96.40;;;;;;2088021;28;20381;-71
2021/05/07 04:29:03;;;;;;;13.52;10.48;;;7.40;96.40;;;;;;2090138;28;20029;-70
2021/05/07 04:30:06;;;;;;;12.50;9.50;;;7.40;96.40;;;;;;2089506;28;20524;-71
2021/05/07 04:31:07;;;;;;;11.45;9.70;;;7.40;96.40;;;;;;2089568;28;20025;-70
2021/05/07 04:32:07;;;;;;;13.20;10.45;;;7.50;96.40;;;;;;2089344;28;20029;-70
2021/05/07 04:33:08;;;;;;;14.32;10.30;;;7.50;96.30;;;;;;2089469;28;20031;-71
2021/05/07 04:34:09;;;;;;;12.50;9.73;;;7.50;96.00;;;;;;2090062;28;20112;-71
2021/05/07 04:35:10;;;;;;;12.57;10.13;;;7.50;96.10;;;;;;2090025;28;20575;-70
2021/05/07 04:36:11;;;;;;;13.60;10.25;;;7.50;96.20;;;;;;2089965;28;20036;-72
2021/05/07 04:37:11;;;;;;;13.52;10.13;;;7.50;95.90;;;;;;2089326;28;20471;-71
2021/05/07 04:38:12;;;;;;;11.82;9.13;;;7.50;96.00;;;;;;2089220;28;20440;-71
2021/05/07 04:39:12;;;;;;;12.93;9.85;;;7.60;96.00;;;;;;2090076;28;20028;-72
2021/05/07 04:40:17;;;;;;;12.85;9.55;;;7.60;96.00;;;;;;2089504;28;20021;-72
2021/05/07 04:41:17;;;;;;;14.55;10.60;;;7.60;95.90;;;;;;2081729;28;20476;-71
2021/05/07 04:42:18;;;;;;;13.43;10.27;;;7.60;95.70;;;;;;2081234;28;20029;-70
2021/05/07 04:43:18;;;;;;;14.20;10.85;;;7.60;95.90;;;;;;2089396;28;20075;-71
2021/05/07 04:44:19;;;;;;;16.45;10.90;;;7.60;95.90;;;;;;2089903;28;20036;-70
2021/05/07 04:45:20;;;;;;;15.10;10.32;;;7.50;95.50;;;;;;2089922;28;20029;-71
2021/05/07 04:46:21;;;;;;;13.35;10.10;;;7.50;95.40;;;;;;2089417;28;20033;-71
2021/05/07 04:47:21;;;;;;;12.75;10.20;;;7.50;95.40;;;;;;2089049;28;20039;-69
2021/05/07 04:48:22;;;;;;;14.52;10.15;;;7.50;95.70;;;;;;2080871;28;20026;-70
2021/05/07 04:49:23;;;;;;;13.43;9.98;;;7.50;95.90;;;;;;2080881;28;20091;-71
2021/05/07 04:50:24;;;;;;;14.30;10.85;;;7.60;95.90;;;;;;2089297;28;20017;-71
2021/05/07 04:51:24;;;;;;;16.80;11.18;;;7.50;95.60;;;;;;2089926;28;20021;-71
2021/05/07 04:52:25;;;;;;;13.88;10.65;;;7.50;95.30;;;;;;2081113;28;20112;-69
2021/05/07 04:53:26;;;;;;;14.82;10.30;;;7.50;95.30;;;;;;2081139;28;20697;-71
2021/05/07 04:54:27;;;;;;;13.77;10.50;;;7.50;95.10;;;;;;2089189;28;20021;-71
2021/05/07 04:55:28;;;;;;;12.95;10.30;;;7.50;95.40;;;;;;2089194;28;20523;-71
2021/05/07 04:56:28;;;;;;;11.30;9.63;;;7.50;95.60;;;;;;2089804;28;20048;-70
2021/05/07 04:57:29;;;;;;;13.55;10.07;;;7.50;95.60;;;;;;2089653;28;20024;-70
2021/05/07 04:58:29;;;;;;;12.73;9.57;;;7.60;95.80;;;;;;2088293;28;20520;-70
2021/05/07 04:59:30;;;;;;;12.77;10.20;;;7.60;95.80;;;;;;2089817;28;20033;-71
2021/05/07 05:00:31;;;;;;;12.25;9.70;;;7.70;95.80;;;;;;2089063;28;20025;-70
2021/05/07 05:01:31;;;;;;;12.45;10.05;;;7.70;95.50;;;;;;2080922;28;20492;-71
2021/05/07 05:02:33;;;;;;;11.77;9.38;;;7.70;95.10;;;;;;2080766;28;20021;-72
2021/05/07 05:03:34;;;;;;;14.60;9.63;;;7.70;95.20;;;;;;2080967;28;20017;-71
2021/05/07 05:04:34;;;;;;;12.85;10.05;;;7.70;95.40;;;;;;2089757;28;20063;-71
2021/05/07 05:05:35;;;;;;;13.13;10.07;;;7.80;95.20;;;;;;2089794;28;20101;-71
2021/05/07 05:06:35;;;;;;;12.20;9.60;;;7.70;95.20;;;;;;2089604;28;20400;-72
2021/05/07 05:07:36;;;;;;;13.98;9.57;;;7.80;95.20;;;;;;2089388;28;20037;-71
2021/05/07 05:08:37;;;;;;;12.75;9.98;;;7.80;95.20;;;;;;2089390;28;20066;-71
2021/05/07 05:09:37;;;;;;;11.65;9.82;;;7.70;95.10;;;;;;2089605;28;20021;-72
2021/05/07 05:10:38;;;;;;;12.18;9.73;;;7.70;95.00;;;;;;2089713;28;20092;-71
2021/05/07 05:11:38;;;;;;;11.18;9.25;;;7.70;94.90;;;;;;2089756;28;20021;-71
2021/05/07 05:12:39;;;;;;;13.60;9.52;;;7.70;95.10;;;;;;2089613;28;20024;-71
2021/05/07 05:13:40;;;;;;;12.48;9.90;;;7.70;95.00;;;;;;2089093;28;20029;-72
2021/05/07 05:14:40;;;;;;;11.50;9.25;;;7.70;95.00;;;;;;2089145;28;20084;-70
2021/05/07 05:15:41;;;;;;;12.88;9.38;;;7.70;95.10;;;;;;2089888;28;20485;-70
2021/05/07 05:16:42;;;;;;;11.57;9.20;;;7.60;94.90;;;;;;2089969;28;20040;-70
2021/05/07 05:17:42;;;;;;;11.68;9.43;;;7.60;94.80;;;;;;2089752;28;20506;-70
2021/05/07 05:18:43;;;;;;;11.75;9.55;;;7.60;95.00;;;;;;2089602;28;20013;-70
2021/05/07 05:19:46;;;;;;;13.30;9.38;;;7.60;94.90;;;;;;2090195;28;20017;-71
2021/05/07 05:20:47;;;;;;;11.85;9.30;;;7.60;94.90;;;;;;2090065;28;20511;-70
2021/05/07 05:21:47;;;;;;;11.57;9.30;;;7.60;94.70;;;;;;2089283;28;20052;-70
2021/05/07 05:22:48;;;;;;;14.55;9.52;;;7.60;94.70;;;;;;2089585;28;20024;-71
2021/05/07 05:23:49;;;;;;;11.40;9.02;;;7.60;94.90;;;;;;2090358;28;20025;-71
2021/05/07 05:24:49;;;;;;;13.10;9.50;;;7.60;94.90;;;;;;2089892;28;20025;-71